sensor_id;sensor_type;location;lat;lon;timestamp;pressure;altitude;pressure_sealevel;temperature;humidity
11444;BME280;5778;47.856;12.154;2022-10-30T00:00:58;96876.72;;;10.27;100.00
11444;BME280;5778;47.856;12.154;2022-10-30T00:03:26;96877.88;;;10.19;100.00
11444;BME280;5778;47.856;12.154;2022-10-30T00:05:53;96879.03;;;10.23;100.00
11444;BME280;5778;47.856;12.154;2022-10-30T00:08:22;96874.63;;;10.29;100.00
11444;BME280;5778;47.856;12.154;2022-10-30T00:10:51;96867.88;;;10.10;100.00
11444;BME280;5778;47.856;12.154;2022-10-30T00:13:19;96868.75;;;10.15;100.00
11444;BME280;5778;47.856;12.154;2022-10-30T00:15:49;96867.34;;;10.24;100.00
11444;BME280;5778;47.856;12.154;2022-10-30T00:18:17;96873.59;;;10.30;100.00
11444;BME280;5778;47.856;12.154;2022-10-30T00:20:45;96867.00;;;10.32;100.00
11444;BME280;5778;47.856;12.154;2022-10-30T00:23:12;96862.75;;;10.20;100.00
11444;BME280;5778;47.856;12.154;2022-10-30T00:25:42;96868.09;;;10.08;100.00
11444;BME280;5778;47.856;12.154;2022-10-30T00:28:09;96869.97;;;10.08;100.00
11444;BME280;5778;47.856;12.154;2022-10-30T00:30:36;96866.72;;;10.06;100.00
11444;BME280;5778;47.856;12.154;2022-10-30T00:33:05;96867.41;;;10.01;100.00
11444;BME280;5778;47.856;12.154;2022-10-30T00:35:32;96859.22;;;9.91;100.00
11444;BME280;5778;47.856;12.154;2022-10-30T00:38:01;96854.84;;;9.97;100.00
11444;BME280;5778;47.856;12.154;2022-10-30T00:40:28;96860.16;;;9.97;100.00
11444;BME280;5778;47.856;12.154;2022-10-30T00:42:57;96867.41;;;10.01;100.00
11444;BME280;5778;47.856;12.154;2022-10-30T00:45:24;96861.06;;;9.91;100.00
11444;BME280;5778;47.856;12.154;2022-10-30T00:47:53;96855.84;;;9.96;100.00
11444;BME280;5778;47.856;12.154;2022-10-30T00:50:24;96863.72;;;9.91;100.00
11444;BME280;5778;47.856;12.154;2022-10-30T00:52:55;96859.94;;;9.87;100.00
11444;BME280;5778;47.856;12.154;2022-10-30T00:55:27;96855.78;;;9.79;100.00
11444;BME280;5778;47.856;12.154;2022-10-30T00:57:59;96857.84;;;9.89;100.00
11444;BME280;5778;47.856;12.154;2022-10-30T01:00:28;96860.81;;;9.92;100.00
11444;BME280;5778;47.856;12.154;2022-10-30T01:02:56;96855.41;;;9.87;100.00
11444;BME280;5778;47.856;12.154;2022-10-30T01:05:26;96852.53;;;9.89;100.00
11444;BME280;5778;47.856;12.154;2022-10-30T01:07:55;96859.16;;;9.75;100.00
11444;BME280;5778;47.856;12.154;2022-10-30T01:10:23;96852.41;;;9.84;100.00
11444;BME280;5778;47.856;12.154;2022-10-30T01:12:52;96851.63;;;9.72;100.00
11444;BME280;5778;47.856;12.154;2022-10-30T01:15:25;96853.13;;;9.79;100.00
11444;BME280;5778;47.856;12.154;2022-10-30T01:18:16;96847.16;;;9.72;100.00
11444;BME280;5778;47.856;12.154;2022-10-30T01:21:02;96847.72;;;9.63;100.00
11444;BME280;5778;47.856;12.154;2022-10-30T01:23:38;96852.56;;;9.66;100.00
11444;BME280;5778;47.856;12.154;2022-10-30T01:26:13;96850.03;;;9.71;100.00
11444;BME280;5778;47.856;12.154;2022-10-30T01:28:55;96842.66;;;9.61;100.00
11444;BME280;5778;47.856;12.154;2022-10-30T01:31:50;96844.00;;;9.64;100.00
11444;BME280;5778;47.856;12.154;2022-10-30T01:34:27;96843.81;;;9.54;100.00
11444;BME280;5778;47.856;12.154;2022-10-30T01:37:01;96843.00;;;9.53;100.00
11444;BME280;5778;47.856;12.154;2022-10-30T01:39:32;96838.97;;;9.51;100.00
11444;BME280;5778;47.856;12.154;2022-10-30T01:42:08;96838.41;;;9.49;100.00
11444;BME280;5778;47.856;12.154;2022-10-30T01:44:35;96834.81;;;9.43;100.00
11444;BME280;5778;47.856;12.154;2022-10-30T01:47:17;96840.81;;;9.50;100.00
11444;BME280;5778;47.856;12.154;2022-10-30T01:50:12;96835.25;;;9.52;100.00
11444;BME280;5778;47.856;12.154;2022-10-30T01:52:47;96835.84;;;9.54;100.00
11444;BME280;5778;47.856;12.154;2022-10-30T01:55:28;96831.66;;;9.58;100.00
11444;BME280;5778;47.856;12.154;2022-10-30T01:58:03;96830.22;;;9.50;100.00
11444;BME280;5778;47.856;12.154;2022-10-30T02:00:33;96835.75;;;9.49;100.00
11444;BME280;5778;47.856;12.154;2022-10-30T02:03:03;96826.50;;;9.51;100.00
11444;BME280;5778;47.856;12.154;2022-10-30T02:05:35;96831.56;;;9.53;100.00
11444;BME280;5778;47.856;12.154;2022-10-30T02:08:05;96827.75;;;9.60;100.00
11444;BME280;5778;47.856;12.154;2022-10-30T02:10:35;96830.66;;;9.59;100.00
11444;BME280;5778;47.856;12.154;2022-10-30T02:13:04;96828.34;;;9.62;100.00
11444;BME280;5778;47.856;12.154;2022-10-30T02:15:32;96820.16;;;9.52;100.00
11444;BME280;5778;47.856;12.154;2022-10-30T02:18:00;96826.16;;;9.48;100.00
11444;BME280;5778;47.856;12.154;2022-10-30T02:20:29;96821.69;;;9.37;100.00
11444;BME280;5778;47.856;12.154;2022-10-30T02:22:57;96824.41;;;9.42;100.00
11444;BME280;5778;47.856;12.154;2022-10-30T02:25:29;96828.59;;;9.38;100.00
11444;BME280;5778;47.856;12.154;2022-10-30T02:27:57;96815.66;;;9.41;100.00
11444;BME280;5778;47.856;12.154;2022-10-30T02:30:26;96822.50;;;9.26;100.00
11444;BME280;5778;47.856;12.154;2022-10-30T02:32:53;96825.72;;;9.28;100.00
11444;BME280;5778;47.856;12.154;2022-10-30T02:35:20;96830.66;;;9.13;100.00
11444;BME280;5778;47.856;12.154;2022-10-30T02:37:50;96819.59;;;9.16;100.00
11444;BME280;5778;47.856;12.154;2022-10-30T02:40:18;96824.09;;;9.15;100.00
11444;BME280;5778;47.856;12.154;2022-10-30T02:42:50;96818.69;;;9.22;100.00
11444;BME280;5778;47.856;12.154;2022-10-30T02:45:18;96818.44;;;9.12;100.00
11444;BME280;5778;47.856;12.154;2022-10-30T02:47:46;96818.56;;;9.17;100.00
11444;BME280;5778;47.856;12.154;2022-10-30T02:50:14;96813.56;;;9.09;100.00
11444;BME280;5778;47.856;12.154;2022-10-30T02:52:42;96809.56;;;9.18;100.00
11444;BME280;5778;47.856;12.154;2022-10-30T02:55:10;96814.06;;;9.06;100.00
11444;BME280;5778;47.856;12.154;2022-10-30T02:57:38;96810.69;;;9.10;100.00
11444;BME280;5778;47.856;12.154;2022-10-30T03:00:06;96810.94;;;9.09;100.00
11444;BME280;5778;47.856;12.154;2022-10-30T03:02:33;96811.75;;;9.09;100.00
11444;BME280;5778;47.856;12.154;2022-10-30T03:05:00;96802.03;;;8.92;100.00
11444;BME280;5778;47.856;12.154;2022-10-30T03:07:27;96805.97;;;9.01;100.00
11444;BME280;5778;47.856;12.154;2022-10-30T03:09:54;96805.63;;;8.97;100.00
11444;BME280;5778;47.856;12.154;2022-10-30T03:12:23;96817.75;;;9.05;100.00
11444;BME280;5778;47.856;12.154;2022-10-30T03:14:51;96813.38;;;8.99;100.00
11444;BME280;5778;47.856;12.154;2022-10-30T03:17:18;96810.59;;;8.94;100.00
11444;BME280;5778;47.856;12.154;2022-10-30T03:19:47;96813.47;;;9.04;100.00
11444;BME280;5778;47.856;12.154;2022-10-30T03:22:14;96819.47;;;8.99;100.00
11444;BME280;5778;47.856;12.154;2022-10-30T03:24:42;96810.59;;;8.94;100.00
11444;BME280;5778;47.856;12.154;2022-10-30T03:27:09;96819.25;;;9.01;100.00
11444;BME280;5778;47.856;12.154;2022-10-30T03:29:40;96820.16;;;9.06;100.00
11444;BME280;5778;47.856;12.154;2022-10-30T03:32:08;96819.25;;;9.01;100.00
11444;BME280;5778;47.856;12.154;2022-10-30T03:34:43;96816.34;;;8.91;100.00
11444;BME280;5778;47.856;12.154;2022-10-30T03:37:10;96817.03;;;8.98;100.00
11444;BME280;5778;47.856;12.154;2022-10-30T03:39:37;96820.94;;;8.95;100.00
11444;BME280;5778;47.856;12.154;2022-10-30T03:42:05;96820.47;;;8.87;100.00
11444;BME280;5778;47.856;12.154;2022-10-30T03:44:32;96814.75;;;8.90;100.00
11444;BME280;5778;47.856;12.154;2022-10-30T03:47:02;96822.81;;;8.95;100.00
11444;BME280;5778;47.856;12.154;2022-10-30T03:49:37;96817.13;;;8.80;100.00
11444;BME280;5778;47.856;12.154;2022-10-30T03:52:09;96823.59;;;8.84;100.00
11444;BME280;5778;47.856;12.154;2022-10-30T03:54:36;96826.25;;;8.84;100.00
11444;BME280;5778;47.856;12.154;2022-10-30T03:57:04;96830.75;;;8.83;100.00
11444;BME280;5778;47.856;12.154;2022-10-30T03:59:40;96824.53;;;8.89;100.00
11444;BME280;5778;47.856;12.154;2022-10-30T04:02:34;96832.72;;;8.88;100.00
11444;BME280;5778;47.856;12.154;2022-10-30T04:05:03;96825.31;;;8.78;100.00
11444;BME280;5778;47.856;12.154;2022-10-30T04:07:30;96836.41;;;8.75;100.00
11444;BME280;5778;47.856;12.154;2022-10-30T04:09:58;96840.66;;;8.76;100.00
11444;BME280;5778;47.856;12.154;2022-10-30T04:12:27;96832.25;;;8.91;100.00
11444;BME280;5778;47.856;12.154;2022-10-30T04:14:54;96842.44;;;8.94;100.00
11444;BME280;5778;47.856;12.154;2022-10-30T04:17:21;96842.63;;;9.04;100.00
11444;BME280;5778;47.856;12.154;2022-10-30T04:19:50;96840.78;;;8.93;100.00
11444;BME280;5778;47.856;12.154;2022-10-30T04:22:17;96845.19;;;8.99;100.00
11444;BME280;5778;47.856;12.154;2022-10-30T04:24:46;96842.44;;;8.94;100.00
11444;BME280;5778;47.856;12.154;2022-10-30T04:27:13;96836.66;;;8.97;100.00
11444;BME280;5778;47.856;12.154;2022-10-30T04:29:40;96842.78;;;8.97;100.00
11444;BME280;5778;47.856;12.154;2022-10-30T04:32:08;96839.66;;;8.89;100.00
11444;BME280;5778;47.856;12.154;2022-10-30T04:34:35;96847.91;;;8.81;100.00
11444;BME280;5778;47.856;12.154;2022-10-30T04:37:06;96849.56;;;8.93;100.00
11444;BME280;5778;47.856;12.154;2022-10-30T04:39:33;96844.81;;;8.95;100.00
11444;BME280;5778;47.856;12.154;2022-10-30T04:42:10;96838.59;;;8.90;100.00
11444;BME280;5778;47.856;12.154;2022-10-30T04:44:39;96841.47;;;8.77;100.00
11444;BME280;5778;47.856;12.154;2022-10-30T04:47:07;96837.66;;;8.73;100.00
11444;BME280;5778;47.856;12.154;2022-10-30T04:49:35;96837.41;;;8.63;100.00
11444;BME280;5778;47.856;12.154;2022-10-30T04:52:02;96844.81;;;8.43;100.00
11444;BME280;5778;47.856;12.154;2022-10-30T04:54:33;96827.38;;;8.24;100.00
11444;BME280;5778;47.856;12.154;2022-10-30T04:57:01;96829.91;;;8.30;100.00
11444;BME280;5778;47.856;12.154;2022-10-30T04:59:29;96834.97;;;8.20;100.00
11444;BME280;5778;47.856;12.154;2022-10-30T05:01:55;96830.81;;;8.24;100.00
11444;BME280;5778;47.856;12.154;2022-10-30T05:04:23;96832.44;;;8.25;100.00
11444;BME280;5778;47.856;12.154;2022-10-30T05:06:53;96829.19;;;8.23;100.00
11444;BME280;5778;47.856;12.154;2022-10-30T05:09:20;96823.25;;;8.28;100.00
11444;BME280;5778;47.856;12.154;2022-10-30T05:11:49;96819.69;;;8.16;100.00
11444;BME280;5778;47.856;12.154;2022-10-30T05:14:16;96815.75;;;8.25;100.00
11444;BME280;5778;47.856;12.154;2022-10-30T05:16:45;96814.75;;;8.19;100.00
11444;BME280;5778;47.856;12.154;2022-10-30T05:19:13;96817.00;;;8.22;100.00
11444;BME280;5778;47.856;12.154;2022-10-30T05:21:45;96814.47;;;8.27;100.00
11444;BME280;5778;47.856;12.154;2022-10-30T05:24:13;96810.00;;;8.28;100.00
11444;BME280;5778;47.856;12.154;2022-10-30T05:26:42;96815.19;;;8.34;100.00
11444;BME280;5778;47.856;12.154;2022-10-30T05:29:12;96814.28;;;8.40;100.00
11444;BME280;5778;47.856;12.154;2022-10-30T05:31:40;96806.94;;;8.42;100.00
11444;BME280;5778;47.856;12.154;2022-10-30T05:34:15;96815.81;;;8.48;100.00
11444;BME280;5778;47.856;12.154;2022-10-30T05:36:45;96812.03;;;8.26;100.00
11444;BME280;5778;47.856;12.154;2022-10-30T05:39:13;96814.13;;;8.24;100.00
11444;BME280;5778;47.856;12.154;2022-10-30T05:41:43;96814.13;;;8.24;100.00
11444;BME280;5778;47.856;12.154;2022-10-30T05:44:13;96815.31;;;8.28;100.00
11444;BME280;5778;47.856;12.154;2022-10-30T05:46:43;96825.56;;;8.36;100.00
11444;BME280;5778;47.856;12.154;2022-10-30T05:49:20;96828.56;;;8.39;100.00
11444;BME280;5778;47.856;12.154;2022-10-30T05:51:47;96830.53;;;8.44;100.00
11444;BME280;5778;47.856;12.154;2022-10-30T05:54:15;96839.09;;;8.46;100.00
11444;BME280;5778;47.856;12.154;2022-10-30T05:56:57;96838.03;;;8.47;100.00
11444;BME280;5778;47.856;12.154;2022-10-30T05:59:25;96841.13;;;8.44;100.00
11444;BME280;5778;47.856;12.154;2022-10-30T06:04:35;96830.09;;;8.47;100.00
11444;BME280;5778;47.856;12.154;2022-10-30T06:07:09;96842.63;;;8.40;100.00
11444;BME280;5778;47.856;12.154;2022-10-30T06:09:36;96844.81;;;8.43;100.00
11444;BME280;5778;47.856;12.154;2022-10-30T06:12:22;96843.00;;;8.43;100.00
11444;BME280;5778;47.856;12.154;2022-10-30T06:15:10;96835.53;;;8.52;100.00
11444;BME280;5778;47.856;12.154;2022-10-30T06:17:37;96834.03;;;8.56;100.00
11444;BME280;5778;47.856;12.154;2022-10-30T06:20:14;96839.22;;;8.51;100.00
11444;BME280;5778;47.856;12.154;2022-10-30T06:23:02;96836.09;;;8.54;100.00
11444;BME280;5778;47.856;12.154;2022-10-30T06:25:41;96841.03;;;8.50;100.00
11444;BME280;5778;47.856;12.154;2022-10-30T06:28:13;96840.81;;;8.52;100.00
11444;BME280;5778;47.856;12.154;2022-10-30T06:30:42;96836.44;;;8.57;100.00
11444;BME280;5778;47.856;12.154;2022-10-30T06:33:10;96840.88;;;8.63;100.00
11444;BME280;5778;47.856;12.154;2022-10-30T06:35:43;96844.56;;;8.74;100.00
11444;BME280;5778;47.856;12.154;2022-10-30T06:38:11;96836.97;;;8.77;100.00
11444;BME280;5778;47.856;12.154;2022-10-30T06:40:40;96849.09;;;8.85;100.00
11444;BME280;5778;47.856;12.154;2022-10-30T06:43:24;96840.09;;;9.09;100.00
11444;BME280;5778;47.856;12.154;2022-10-30T06:45:58;96844.88;;;9.18;100.00
11444;BME280;5778;47.856;12.154;2022-10-30T06:48:26;96847.41;;;9.36;100.00
11444;BME280;5778;47.856;12.154;2022-10-30T06:50:54;96843.09;;;9.47;100.00
11444;BME280;5778;47.856;12.154;2022-10-30T06:53:22;96854.44;;;9.54;100.00
11444;BME280;5778;47.856;12.154;2022-10-30T06:55:55;96848.06;;;9.66;100.00
11444;BME280;5778;47.856;12.154;2022-10-30T06:58:39;96853.13;;;9.79;100.00
11444;BME280;5778;47.856;12.154;2022-10-30T07:01:11;96856.00;;;9.89;100.00
11444;BME280;5778;47.856;12.154;2022-10-30T07:03:57;96847.56;;;10.04;100.00
11444;BME280;5778;47.856;12.154;2022-10-30T07:06:25;96852.50;;;10.12;100.00
11444;BME280;5778;47.856;12.154;2022-10-30T07:08:52;96846.66;;;10.26;100.00
11444;BME280;5778;47.856;12.154;2022-10-30T07:11:20;96849.28;;;10.38;100.00
11444;BME280;5778;47.856;12.154;2022-10-30T07:14:16;96842.38;;;10.53;100.00
11444;BME280;5778;47.856;12.154;2022-10-30T07:17:11;96844.84;;;10.71;100.00
11444;BME280;5778;47.856;12.154;2022-10-30T07:19:39;96848.00;;;10.85;100.00
11444;BME280;5778;47.856;12.154;2022-10-30T07:22:06;96846.81;;;10.92;100.00
11444;BME280;5778;47.856;12.154;2022-10-30T07:24:35;96838.81;;;11.09;100.00
11444;BME280;5778;47.856;12.154;2022-10-30T07:27:08;96838.00;;;11.25;100.00
11444;BME280;5778;47.856;12.154;2022-10-30T07:30:01;96842.28;;;11.42;100.00
11444;BME280;5778;47.856;12.154;2022-10-30T07:32:40;96847.59;;;11.59;100.00
11444;BME280;5778;47.856;12.154;2022-10-30T07:35:31;96843.28;;;11.74;100.00
11444;BME280;5778;47.856;12.154;2022-10-30T07:38:17;96845.81;;;11.86;100.00
11444;BME280;5778;47.856;12.154;2022-10-30T07:40:52;96848.75;;;12.06;100.00
11444;BME280;5778;47.856;12.154;2022-10-30T07:43:54;96849.72;;;12.21;100.00
11444;BME280;5778;47.856;12.154;2022-10-30T07:46:34;96845.44;;;12.42;100.00
11444;BME280;5778;47.856;12.154;2022-10-30T07:49:21;96842.97;;;12.62;100.00
11444;BME280;5778;47.856;12.154;2022-10-30T07:51:52;96840.16;;;12.73;100.00
11444;BME280;5778;47.856;12.154;2022-10-30T07:54:19;96844.38;;;12.96;100.00
11444;BME280;5778;47.856;12.154;2022-10-30T07:56:47;96842.38;;;13.08;100.00
11444;BME280;5778;47.856;12.154;2022-10-30T07:59:14;96840.38;;;13.25;100.00
11444;BME280;5778;47.856;12.154;2022-10-30T08:02:10;96837.81;;;13.40;100.00
11444;BME280;5778;47.856;12.154;2022-10-30T08:05:02;96845.13;;;13.54;100.00
11444;BME280;5778;47.856;12.154;2022-10-30T08:07:41;96848.63;;;13.60;100.00
11444;BME280;5778;47.856;12.154;2022-10-30T08:10:08;96841.50;;;13.70;100.00
11444;BME280;5778;47.856;12.154;2022-10-30T08:12:36;96839.16;;;13.84;100.00
11444;BME280;5778;47.856;12.154;2022-10-30T08:15:05;96843.50;;;14.05;100.00
11444;BME280;5778;47.856;12.154;2022-10-30T08:17:34;96838.31;;;14.30;100.00
11444;BME280;5778;47.856;12.154;2022-10-30T08:20:10;96825.00;;;14.55;100.00
11444;BME280;5778;47.856;12.154;2022-10-30T08:22:46;96825.03;;;14.75;100.00
11444;BME280;5778;47.856;12.154;2022-10-30T08:25:14;96824.50;;;14.78;100.00
11444;BME280;5778;47.856;12.154;2022-10-30T08:27:49;96822.91;;;14.92;100.00
11444;BME280;5778;47.856;12.154;2022-10-30T08:30:17;96819.97;;;15.03;100.00
11444;BME280;5778;47.856;12.154;2022-10-30T08:32:45;96811.69;;;15.20;100.00
11444;BME280;5778;47.856;12.154;2022-10-30T08:35:33;96817.31;;;15.28;100.00
11444;BME280;5778;47.856;12.154;2022-10-30T08:38:00;96813.84;;;15.33;100.00
11444;BME280;5778;47.856;12.154;2022-10-30T08:40:28;96818.13;;;15.44;100.00
11444;BME280;5778;47.856;12.154;2022-10-30T08:43:04;96817.81;;;15.60;100.00
11444;BME280;5778;47.856;12.154;2022-10-30T08:45:32;96812.13;;;15.87;100.00
11444;BME280;5778;47.856;12.154;2022-10-30T08:48:05;96812.00;;;16.12;100.00
11444;BME280;5778;47.856;12.154;2022-10-30T08:50:38;96812.19;;;16.35;100.00
11444;BME280;5778;47.856;12.154;2022-10-30T08:53:07;96813.00;;;16.36;100.00
11444;BME280;5778;47.856;12.154;2022-10-30T08:55:35;96803.50;;;16.58;100.00
11444;BME280;5778;47.856;12.154;2022-10-30T08:58:07;96802.84;;;16.76;100.00
11444;BME280;5778;47.856;12.154;2022-10-30T09:03:26;96791.94;;;16.96;100.00
11444;BME280;5778;47.856;12.154;2022-10-30T09:06:14;96788.41;;;17.06;100.00
11444;BME280;5778;47.856;12.154;2022-10-30T09:09:01;96789.72;;;17.37;100.00
11444;BME280;5778;47.856;12.154;2022-10-30T09:11:39;96786.41;;;17.50;100.00
11444;BME280;5778;47.856;12.154;2022-10-30T09:14:06;96791.66;;;17.65;100.00
11444;BME280;5778;47.856;12.154;2022-10-30T09:16:34;96794.78;;;17.72;100.00
11444;BME280;5778;47.856;12.154;2022-10-30T09:19:01;96791.31;;;17.95;100.00
11444;BME280;5778;47.856;12.154;2022-10-30T09:21:30;96783.41;;;17.80;100.00
11444;BME280;5778;47.856;12.154;2022-10-30T09:23:58;96780.97;;;18.02;100.00
11444;BME280;5778;47.856;12.154;2022-10-30T09:26:34;96785.69;;;17.91;100.00
11444;BME280;5778;47.856;12.154;2022-10-30T09:29:36;96786.38;;;18.02;100.00
11444;BME280;5778;47.856;12.154;2022-10-30T09:32:13;96795.84;;;18.18;100.00
11444;BME280;5778;47.856;12.154;2022-10-30T09:34:52;96780.06;;;18.35;100.00
11444;BME280;5778;47.856;12.154;2022-10-30T09:37:33;96789.22;;;18.34;100.00
11444;BME280;5778;47.856;12.154;2022-10-30T09:40:00;96787.44;;;18.66;100.00
11444;BME280;5778;47.856;12.154;2022-10-30T09:42:42;96788.09;;;18.77;100.00
11444;BME280;5778;47.856;12.154;2022-10-30T09:45:35;96785.66;;;18.94;100.00
11444;BME280;5778;47.856;12.154;2022-10-30T09:48:25;96783.44;;;19.14;100.00
11444;BME280;5778;47.856;12.154;2022-10-30T09:51:12;96791.44;;;19.38;100.00
11444;BME280;5778;47.856;12.154;2022-10-30T09:54:02;96787.09;;;19.23;100.00
11444;BME280;5778;47.856;12.154;2022-10-30T09:56:43;96785.06;;;19.34;100.00
11444;BME280;5778;47.856;12.154;2022-10-30T09:59:20;96785.88;;;19.48;100.00
11444;BME280;5778;47.856;12.154;2022-10-30T10:01:56;96783.81;;;19.58;100.00
11444;BME280;5778;47.856;12.154;2022-10-30T10:04:37;96792.91;;;19.76;100.00
11444;BME280;5778;47.856;12.154;2022-10-30T10:07:30;96785.44;;;19.86;100.00
11444;BME280;5778;47.856;12.154;2022-10-30T10:10:12;96782.06;;;20.21;100.00
11444;BME280;5778;47.856;12.154;2022-10-30T10:12:49;96785.28;;;20.10;100.00
11444;BME280;5778;47.856;12.154;2022-10-30T10:15:27;96775.59;;;19.77;100.00
11444;BME280;5778;47.856;12.154;2022-10-30T10:17:58;96780.75;;;20.19;100.00
11444;BME280;5778;47.856;12.154;2022-10-30T10:20:31;96784.13;;;20.51;100.00
11444;BME280;5778;47.856;12.154;2022-10-30T10:23:03;96780.31;;;20.52;100.00
11444;BME280;5778;47.856;12.154;2022-10-30T10:25:34;96771.84;;;20.32;100.00
11444;BME280;5778;47.856;12.154;2022-10-30T10:28:10;96786.09;;;20.59;100.00
11444;BME280;5778;47.856;12.154;2022-10-30T10:30:46;96784.53;;;21.16;100.00
11444;BME280;5778;47.856;12.154;2022-10-30T10:33:36;96775.94;;;21.14;100.00
11444;BME280;5778;47.856;12.154;2022-10-30T10:36:22;96778.66;;;20.78;100.00
11444;BME280;5778;47.856;12.154;2022-10-30T10:39:03;96773.59;;;21.21;100.00
11444;BME280;5778;47.856;12.154;2022-10-30T10:41:47;96770.53;;;21.36;100.00
11444;BME280;5778;47.856;12.154;2022-10-30T10:44:30;96765.84;;;21.28;100.00
11444;BME280;5778;47.856;12.154;2022-10-30T10:47:10;96764.63;;;21.12;100.00
11444;BME280;5778;47.856;12.154;2022-10-30T10:49:54;96761.84;;;21.25;100.00
11444;BME280;5778;47.856;12.154;2022-10-30T10:52:36;96766.31;;;21.74;100.00
11444;BME280;5778;47.856;12.154;2022-10-30T10:55:09;96760.19;;;21.38;100.00
11444;BME280;5778;47.856;12.154;2022-10-30T10:57:41;96754.09;;;21.32;100.00
11444;BME280;5778;47.856;12.154;2022-10-30T11:00:14;96759.53;;;21.63;100.00
11444;BME280;5778;47.856;12.154;2022-10-30T11:02:46;96754.78;;;21.68;100.00
11444;BME280;5778;47.856;12.154;2022-10-30T11:05:24;96750.47;;;21.98;100.00
11444;BME280;5778;47.856;12.154;2022-10-30T11:07:57;96744.31;;;22.23;100.00
11444;BME280;5778;47.856;12.154;2022-10-30T11:10:24;96747.06;;;22.40;100.00
11444;BME280;5778;47.856;12.154;2022-10-30T11:12:54;96742.41;;;22.32;100.00
11444;BME280;5778;47.856;12.154;2022-10-30T11:15:30;96743.84;;;22.38;100.00
11444;BME280;5778;47.856;12.154;2022-10-30T11:18:02;96739.94;;;22.52;100.00
11444;BME280;5778;47.856;12.154;2022-10-30T11:20:35;96740.56;;;22.49;100.00
11444;BME280;5778;47.856;12.154;2022-10-30T11:23:34;96737.09;;;23.00;100.00
11444;BME280;5778;47.856;12.154;2022-10-30T11:26:03;96743.59;;;23.16;100.00
11444;BME280;5778;47.856;12.154;2022-10-30T11:28:39;96741.31;;;23.52;100.00
11444;BME280;5778;47.856;12.154;2022-10-30T11:31:22;96739.75;;;23.34;100.00
11444;BME280;5778;47.856;12.154;2022-10-30T11:33:52;96741.09;;;23.65;100.00
11444;BME280;5778;47.856;12.154;2022-10-30T11:36:22;96734.53;;;23.75;100.00
11444;BME280;5778;47.856;12.154;2022-10-30T11:38:54;96738.59;;;24.06;94.09
11444;BME280;5778;47.856;12.154;2022-10-30T11:41:24;96732.53;;;24.30;97.28
11444;BME280;5778;47.856;12.154;2022-10-30T11:43:53;96740.16;;;24.07;94.25
11444;BME280;5778;47.856;12.154;2022-10-30T11:46:21;96724.94;;;24.15;80.34
11444;BME280;5778;47.856;12.154;2022-10-30T11:48:49;96730.13;;;24.08;95.10
11444;BME280;5778;47.856;12.154;2022-10-30T11:51:33;96723.09;;;23.98;98.24
11444;BME280;5778;47.856;12.154;2022-10-30T11:54:00;96721.38;;;24.23;98.10
11444;BME280;5778;47.856;12.154;2022-10-30T11:56:29;96719.25;;;24.78;96.97
11444;BME280;5778;47.856;12.154;2022-10-30T11:59:00;96722.84;;;25.11;90.90
11444;BME280;5778;47.856;12.154;2022-10-30T12:01:29;96719.31;;;25.43;85.55
11444;BME280;5778;47.856;12.154;2022-10-30T12:04:12;96712.09;;;25.59;82.85
11444;BME280;5778;47.856;12.154;2022-10-30T12:06:40;96711.09;;;24.98;71.58
11444;BME280;5778;47.856;12.154;2022-10-30T12:09:10;96708.16;;;24.83;77.12
11444;BME280;5778;47.856;12.154;2022-10-30T12:11:39;96713.56;;;24.71;82.04
11444;BME280;5778;47.856;12.154;2022-10-30T12:14:16;96706.00;;;24.27;87.55
11444;BME280;5778;47.856;12.154;2022-10-30T12:16:46;96708.06;;;24.01;92.81
11444;BME280;5778;47.856;12.154;2022-10-30T12:19:15;96703.59;;;24.05;87.07
11444;BME280;5778;47.856;12.154;2022-10-30T12:21:45;96697.72;;;24.23;87.48
11444;BME280;5778;47.856;12.154;2022-10-30T12:24:17;96695.56;;;24.78;86.87
11444;BME280;5778;47.856;12.154;2022-10-30T12:26:46;96702.72;;;25.36;88.09
11444;BME280;5778;47.856;12.154;2022-10-30T12:29:17;96705.81;;;25.14;80.84
11444;BME280;5778;47.856;12.154;2022-10-30T12:31:51;96703.22;;;24.85;94.13
11444;BME280;5778;47.856;12.154;2022-10-30T12:34:30;96697.00;;;25.17;88.34
11444;BME280;5778;47.856;12.154;2022-10-30T12:37:05;96692.22;;;25.46;84.48
11444;BME280;5778;47.856;12.154;2022-10-30T12:39:45;96686.69;;;25.67;85.38
11444;BME280;5778;47.856;12.154;2022-10-30T12:42:15;96686.06;;;25.94;76.45
11444;BME280;5778;47.856;12.154;2022-10-30T12:44:52;96680.22;;;26.31;76.56
11444;BME280;5778;47.856;12.154;2022-10-30T12:47:25;96679.38;;;26.67;70.89
11444;BME280;5778;47.856;12.154;2022-10-30T12:49:59;96683.19;;;26.78;78.40
11444;BME280;5778;47.856;12.154;2022-10-30T12:52:33;96690.97;;;26.52;88.64
11444;BME280;5778;47.856;12.154;2022-10-30T12:55:08;96682.81;;;26.64;90.65
11444;BME280;5778;47.856;12.154;2022-10-30T12:57:42;96683.25;;;26.66;92.56
11444;BME280;5778;47.856;12.154;2022-10-30T13:00:13;96680.19;;;27.22;81.35
11444;BME280;5778;47.856;12.154;2022-10-30T13:02:51;96676.97;;;27.48;74.33
11444;BME280;5778;47.856;12.154;2022-10-30T13:05:29;96675.94;;;27.68;72.34
11444;BME280;5778;47.856;12.154;2022-10-30T13:08:09;96676.81;;;27.72;74.68
11444;BME280;5778;47.856;12.154;2022-10-30T13:10:41;96670.16;;;27.85;67.98
11444;BME280;5778;47.856;12.154;2022-10-30T13:13:13;96668.72;;;27.91;64.21
11444;BME280;5778;47.856;12.154;2022-10-30T13:15:45;96667.47;;;28.04;71.57
11444;BME280;5778;47.856;12.154;2022-10-30T13:18:15;96663.13;;;27.72;75.10
11444;BME280;5778;47.856;12.154;2022-10-30T13:20:48;96667.97;;;27.32;78.13
11444;BME280;5778;47.856;12.154;2022-10-30T13:23:25;96662.53;;;27.04;75.05
11444;BME280;5778;47.856;12.154;2022-10-30T13:26:02;96660.63;;;27.20;77.13
11444;BME280;5778;47.856;12.154;2022-10-30T13:28:39;96659.00;;;27.62;76.72
11444;BME280;5778;47.856;12.154;2022-10-30T13:31:17;96650.56;;;27.83;76.06
11444;BME280;5778;47.856;12.154;2022-10-30T13:33:54;96650.97;;;28.00;70.93